Time;durP1;ratioP1;P1;durP2;ratioP2;P2;SDS_P1;SDS_P2;PMS_P1;PMS_P2;Temp;Humidity;BMP_temperature;BMP_pressure;BME280_temperature;BME280_humidity;BME280_pressure;Samples;Min_cycle;Max_cycle;Signal;HPM_P1;HPM_P2
2023/12/25 00:02:04;;;;;;;9.00;1.88;;;12.60;99.90;;;;;;6229722;22;20076;-77
2023/12/25 00:04:31;;;;;;;8.13;1.42;;;12.60;99.90;;;;;;6280232;22;20019;-77
2023/12/25 00:06:58;;;;;;;4.97;1.63;;;12.60;99.90;;;;;;6229714;22;20097;-81
2023/12/25 00:09:25;;;;;;;7.47;1.50;;;12.70;99.90;;;;;;6254504;22;20027;-80
2023/12/25 00:11:52;;;;;;;5.55;1.95;;;12.70;99.90;;;;;;6279728;22;20019;-81
2023/12/25 00:14:20;;;;;;;8.05;2.67;;;12.60;99.90;;;;;;6229420;22;20022;-78
2023/12/25 00:16:48;;;;;;;6.40;2.70;;;12.50;99.90;;;;;;6307329;22;20019;-76
2023/12/25 00:19:15;;;;;;;9.15;1.85;;;12.40;99.90;;;;;;6280611;22;20259;-76
2023/12/25 00:21:42;;;;;;;5.47;1.85;;;12.40;99.90;;;;;;6254655;22;20011;-76
2023/12/25 00:24:09;;;;;;;8.30;1.80;;;12.30;99.90;;;;;;6305749;22;20023;-77
2023/12/25 00:26:40;;;;;;;6.95;2.20;;;12.30;99.90;;;;;;6255065;22;20495;-76
2023/12/25 00:29:07;;;;;;;6.03;2.05;;;12.30;99.90;;;;;;6281496;22;20015;-76
2023/12/25 00:31:35;;;;;;;9.27;2.20;;;12.20;99.90;;;;;;6254387;22;20109;-76
2023/12/25 00:34:02;;;;;;;9.40;2.05;;;12.20;99.90;;;;;;6280438;22;20046;-76
2023/12/25 00:36:29;;;;;;;6.25;1.80;;;12.20;99.90;;;;;;6255658;22;20027;-76
2023/12/25 00:38:56;;;;;;;6.30;1.25;;;12.20;99.90;;;;;;6256528;22;20023;-76
2023/12/25 00:41:27;;;;;;;7.90;1.90;;;12.20;99.90;;;;;;6282103;22;20015;-76
2023/12/25 00:43:54;;;;;;;9.03;1.83;;;12.20;99.90;;;;;;6232019;22;20023;-76
2023/12/25 00:46:21;;;;;;;4.85;0.98;;;12.20;99.90;;;;;;6254647;22;20022;-76
2023/12/25 00:48:48;;;;;;;5.47;1.27;;;12.30;99.90;;;;;;6231401;22;20395;-76
2023/12/25 00:51:19;;;;;;;7.28;1.42;;;12.30;99.90;;;;;;6258057;22;20068;-76
2023/12/25 00:53:45;;;;;;;4.50;0.90;;;12.30;99.90;;;;;;6231161;22;20023;-76
2023/12/25 00:56:12;;;;;;;9.70;1.60;;;12.30;99.90;;;;;;6256224;22;20027;-78
2023/12/25 00:58:40;;;;;;;5.28;1.35;;;12.20;99.90;;;;;;6231604;22;20445;-76
2023/12/25 01:01:07;;;;;;;10.57;1.70;;;12.20;99.90;;;;;;6256057;22;20412;-76
2023/12/25 01:03:35;;;;;;;7.07;1.15;;;12.10;99.90;;;;;;6282024;22;20019;-76
2023/12/25 01:06:03;;;;;;;5.55;1.10;;;12.10;99.90;;;;;;6281789;22;20023;-77
2023/12/25 01:08:30;;;;;;;9.63;1.67;;;12.10;99.90;;;;;;6281834;22;20442;-77
2023/12/25 01:11:00;;;;;;;5.90;1.38;;;12.10;99.90;;;;;;6281902;22;20073;-77
2023/12/25 01:13:27;;;;;;;6.10;1.15;;;12.00;99.90;;;;;;6281597;22;20401;-82
2023/12/25 01:15:54;;;;;;;7.22;1.45;;;12.00;99.90;;;;;;6256609;22;20034;-81
2023/12/25 01:18:22;;;;;;;8.73;1.50;;;12.00;99.90;;;;;;6256198;22;20050;-79
2023/12/25 01:20:49;;;;;;;5.50;1.77;;;12.00;99.90;;;;;;6230567;22;20019;-79
2023/12/25 01:23:16;;;;;;;5.95;1.27;;;12.00;99.90;;;;;;6230919;22;20019;-79
2023/12/25 01:25:43;;;;;;;7.22;1.20;;;11.90;99.90;;;;;;6255699;22;20053;-78
2023/12/25 01:28:11;;;;;;;4.18;0.75;;;11.90;99.90;;;;;;6230781;22;20015;-78
2023/12/25 01:30:38;;;;;;;5.80;1.30;;;11.80;99.90;;;;;;6256100;22;20460;-78
2023/12/25 01:33:05;;;;;;;4.03;0.85;;;11.80;99.90;;;;;;6281303;22;20023;-78
2023/12/25 01:35:32;;;;;;;9.38;1.20;;;11.80;99.90;;;;;;6255674;22;20019;-78
2023/12/25 01:37:59;;;;;;;6.75;1.30;;;11.80;99.90;;;;;;6255725;22;20027;-77
2023/12/25 01:40:26;;;;;;;8.57;2.00;;;11.80;99.90;;;;;;6230429;22;20019;-77
2023/12/25 01:42:56;;;;;;;9.07;1.48;;;11.80;99.90;;;;;;6255708;22;20019;-77
2023/12/25 01:45:23;;;;;;;9.73;1.42;;;11.80;99.90;;;;;;6306706;22;20520;-78
2023/12/25 01:47:50;;;;;;;10.48;1.80;;;11.80;99.90;;;;;;6255655;22;20384;-77
2023/12/25 01:50:18;;;;;;;9.35;2.13;;;11.80;99.90;;;;;;6281401;22;20019;-77
2023/12/25 01:52:45;;;;;;;8.50;2.30;;;11.70;99.90;;;;;;6292619;22;20047;-78
2023/12/25 01:55:13;;;;;;;7.25;1.52;;;11.80;99.90;;;;;;6278698;22;20325;-78
2023/12/25 01:57:41;;;;;;;7.20;1.50;;;11.70;99.90;;;;;;6253341;22;20014;-77
2023/12/25 02:00:09;;;;;;;10.80;1.42;;;11.70;99.90;;;;;;6232957;22;20445;-77
2023/12/25 02:02:40;;;;;;;8.23;1.05;;;11.70;99.90;;;;;;6283991;22;20027;-77
2023/12/25 02:05:08;;;;;;;6.53;1.60;;;11.60;99.90;;;;;;6282462;22;20461;-77
2023/12/25 02:07:39;;;;;;;5.65;1.13;;;11.50;99.90;;;;;;6256178;22;20697;-77
2023/12/25 02:10:08;;;;;;;6.18;0.70;;;11.30;99.90;;;;;;6281357;22;20041;-77
2023/12/25 02:12:36;;;;;;;2.75;0.50;;;11.20;99.90;;;;;;6281558;22;20392;-79
2023/12/25 02:15:03;;;;;;;3.13;0.50;;;11.10;99.90;;;;;;6280717;22;20039;-79
2023/12/25 02:17:32;;;;;;;2.63;0.40;;;11.00;99.90;;;;;;6255777;22;20023;-79
2023/12/25 02:19:59;;;;;;;2.65;0.55;;;10.90;99.90;;;;;;6230723;22;20015;-80
2023/12/25 02:22:30;;;;;;;3.85;0.52;;;10.80;99.90;;;;;;6255138;22;20031;-78
2023/12/25 02:25:05;;;;;;;2.22;0.40;;;10.70;99.90;;;;;;6231366;22;20031;-77
2023/12/25 02:27:32;;;;;;;3.13;0.28;;;10.60;99.90;;;;;;6280489;22;20094;-80
2023/12/25 02:29:59;;;;;;;2.63;0.50;;;10.50;99.90;;;;;;6256119;22;20094;-85
2023/12/25 02:32:29;;;;;;;3.83;0.28;;;10.50;99.90;;;;;;6280888;22;20007;-79
2023/12/25 02:34:56;;;;;;;2.80;0.52;;;10.50;99.90;;;;;;6256639;22;20023;-86
2023/12/25 02:37:23;;;;;;;1.92;0.30;;;10.50;99.90;;;;;;6255840;22;20015;-84
2023/12/25 02:39:50;;;;;;;1.90;0.32;;;10.50;99.90;;;;;;6231313;22;20025;-83
2023/12/25 02:42:18;;;;;;;2.88;0.30;;;10.50;99.90;;;;;;6205618;22;20015;-83
2023/12/25 02:44:45;;;;;;;3.03;0.55;;;10.60;99.90;;;;;;6231154;22;20026;-83
2023/12/25 02:47:12;;;;;;;4.72;0.52;;;10.70;99.90;;;;;;6231073;22;20358;-83
2023/12/25 02:49:38;;;;;;;3.47;0.57;;;10.70;99.90;;;;;;6256174;22;20373;-83
2023/12/25 02:52:06;;;;;;;5.18;1.23;;;10.80;99.90;;;;;;6230679;22;20027;-82
2023/12/25 02:54:33;;;;;;;4.03;1.23;;;10.80;99.90;;;;;;6255647;22;20023;-83
2023/12/25 02:57:00;;;;;;;10.20;1.60;;;10.90;99.90;;;;;;6255916;22;20019;-82
2023/12/25 02:59:27;;;;;;;11.57;1.80;;;11.00;99.90;;;;;;6227577;22;20110;-82
2023/12/25 03:01:54;;;;;;;11.27;1.55;;;11.10;99.90;;;;;;6219619;23;20355;-81
2023/12/25 03:04:21;;;;;;;7.03;1.83;;;11.10;99.90;;;;;;6245850;22;20031;-81
2023/12/25 03:06:48;;;;;;;11.40;2.45;;;11.20;99.90;;;;;;6224634;22;20023;-81
2023/12/25 03:09:16;;;;;;;12.60;2.05;;;11.30;99.90;;;;;;6221962;22;20035;-81
2023/12/25 03:11:44;;;;;;;9.02;2.08;;;11.40;99.90;;;;;;6249935;22;20031;-79
2023/12/25 03:14:11;;;;;;;17.25;3.72;;;11.40;99.90;;;;;;6224652;22;20019;-79
2023/12/25 03:16:38;;;;;;;10.30;2.05;;;11.50;99.90;;;;;;6219740;23;20023;-79
2023/12/25 03:19:05;;;;;;;16.55;2.33;;;11.50;99.90;;;;;;6176733;22;20079;-78
2023/12/25 03:21:32;;;;;;;14.88;1.92;;;11.50;99.90;;;;;;6262777;22;20020;-78
2023/12/25 03:23:59;;;;;;;14.40;2.50;;;11.50;99.90;;;;;;6244022;23;20331;-78
2023/12/25 03:26:26;;;;;;;12.93;1.90;;;11.50;99.90;;;;;;6223718;22;20031;-79
2023/12/25 03:28:53;;;;;;;11.38;1.63;;;11.50;99.90;;;;;;6249962;22;20019;-78
2023/12/25 03:31:20;;;;;;;11.05;1.80;;;11.50;99.90;;;;;;6249338;22;20347;-78
2023/12/25 03:33:47;;;;;;;5.80;1.45;;;11.50;99.90;;;;;;6224380;22;20358;-78
2023/12/25 03:36:15;;;;;;;15.02;1.77;;;11.50;99.90;;;;;;6221250;22;20401;-79
2023/12/25 03:38:46;;;;;;;15.90;2.25;;;11.50;99.90;;;;;;6219051;23;20024;-78
2023/12/25 03:41:13;;;;;;;13.43;2.58;;;11.50;99.90;;;;;;6246211;22;20023;-79
2023/12/25 03:43:40;;;;;;;11.07;1.55;;;11.50;99.90;;;;;;6274852;22;20027;-79
2023/12/25 03:46:07;;;;;;;10.93;1.65;;;11.60;99.90;;;;;;6244674;22;20027;-79
2023/12/25 03:48:34;;;;;;;14.40;1.85;;;11.60;99.90;;;;;;6224954;22;20391;-78
2023/12/25 03:51:02;;;;;;;10.82;1.90;;;11.50;99.90;;;;;;6249390;22;20058;-78
2023/12/25 03:53:29;;;;;;;16.48;2.42;;;11.50;99.90;;;;;;6249032;22;20024;-78
2023/12/25 03:56:00;;;;;;;13.30;2.10;;;11.60;99.90;;;;;;6249132;22;20054;-78
2023/12/25 03:58:27;;;;;;;7.00;1.95;;;11.60;99.90;;;;;;6222896;22;20353;-79
2023/12/25 04:00:54;;;;;;;9.05;2.15;;;11.60;99.90;;;;;;6249091;22;20020;-78
2023/12/25 04:03:21;;;;;;;14.95;2.33;;;11.60;99.90;;;;;;6224404;22;20016;-78
2023/12/25 04:05:48;;;;;;;9.88;1.83;;;11.60;99.90;;;;;;6249434;22;20093;-78
2023/12/25 04:08:16;;;;;;;10.02;1.90;;;11.60;99.90;;;;;;6224277;22;20042;-78
2023/12/25 04:10:43;;;;;;;9.70;2.05;;;11.60;99.90;;;;;;6250767;22;20024;-78
2023/12/25 04:13:10;;;;;;;8.50;1.60;;;11.60;99.90;;;;;;6251145;22;20046;-78
2023/12/25 04:15:37;;;;;;;14.52;2.38;;;11.70;99.90;;;;;;6251541;22;20027;-78
2023/12/25 04:18:04;;;;;;;5.90;1.25;;;11.70;99.90;;;;;;6251235;22;20020;-78
2023/12/25 04:20:31;;;;;;;11.38;1.60;;;11.70;99.90;;;;;;6251424;22;20389;-78
2023/12/25 04:22:59;;;;;;;11.80;1.92;;;11.70;99.90;;;;;;6226703;22;20106;-79
2023/12/25 04:25:26;;;;;;;8.98;1.25;;;11.70;99.90;;;;;;6251465;22;20015;-79
2023/12/25 04:27:53;;;;;;;9.25;1.73;;;11.70;99.90;;;;;;6201171;22;20374;-78
2023/12/25 04:30:20;;;;;;;11.82;2.33;;;11.70;99.90;;;;;;6226624;22;20023;-78
2023/12/25 04:32:47;;;;;;;11.30;1.80;;;11.70;99.90;;;;;;6202095;22;20394;-78
2023/12/25 04:35:15;;;;;;;11.70;1.80;;;11.70;99.90;;;;;;6226134;22;20714;-78
2023/12/25 04:37:41;;;;;;;10.82;1.33;;;11.70;99.90;;;;;;6251188;22;20023;-78
2023/12/25 04:40:09;;;;;;;8.13;1.42;;;11.70;99.90;;;;;;6201564;22;20020;-78
2023/12/25 04:42:37;;;;;;;13.07;1.90;;;11.70;99.90;;;;;;6251401;22;20024;-83
2023/12/25 04:45:08;;;;;;;7.53;1.33;;;11.70;99.90;;;;;;6251652;22;20016;-78
2023/12/25 04:47:35;;;;;;;9.05;1.25;;;11.70;99.90;;;;;;6251117;22;20073;-79
2023/12/25 04:50:02;;;;;;;8.82;1.38;;;11.70;99.90;;;;;;6226472;22;20016;-79
2023/12/25 04:52:29;;;;;;;12.77;2.00;;;11.70;99.90;;;;;;6226271;22;20023;-77
2023/12/25 04:54:56;;;;;;;7.35;1.52;;;11.70;99.90;;;;;;6276567;22;20024;-77
2023/12/25 04:57:23;;;;;;;9.55;1.30;;;11.70;99.90;;;;;;6201080;22;20024;-78
2023/12/25 04:59:50;;;;;;;11.73;1.90;;;11.70;99.90;;;;;;6276307;22;20027;-76
2023/12/25 05:02:18;;;;;;;12.63;1.58;;;11.80;99.90;;;;;;6226316;22;20026;-79
2023/12/25 05:04:46;;;;;;;8.52;1.50;;;11.80;99.90;;;;;;6201120;22;20453;-78
2023/12/25 05:07:13;;;;;;;8.80;1.50;;;11.80;99.90;;;;;;6276671;22;20341;-79
2023/12/25 05:09:40;;;;;;;11.23;2.03;;;11.90;99.90;;;;;;6226426;22;20342;-81
2023/12/25 05:12:08;;;;;;;8.85;1.50;;;11.90;99.90;;;;;;6251370;22;20026;-80
2023/12/25 05:14:35;;;;;;;12.63;2.38;;;11.90;99.90;;;;;;6250993;22;20031;-80
2023/12/25 05:17:02;;;;;;;7.88;1.00;;;11.90;99.90;;;;;;6250953;22;20392;-80
2023/12/25 05:19:29;;;;;;;9.20;2.08;;;11.90;99.90;;;;;;6225619;22;20102;-80
2023/12/25 05:21:56;;;;;;;7.22;1.10;;;11.90;99.90;;;;;;6250288;22;20015;-80
2023/12/25 05:24:23;;;;;;;10.18;1.52;;;11.80;99.90;;;;;;6225668;22;20016;-80
2023/12/25 05:26:50;;;;;;;5.07;1.33;;;11.80;99.90;;;;;;6225774;22;20023;-80
2023/12/25 05:29:17;;;;;;;8.25;1.23;;;11.70;99.90;;;;;;6200923;22;20089;-80
2023/12/25 05:31:44;;;;;;;8.07;0.88;;;11.70;99.90;;;;;;6251052;22;20027;-78
2023/12/25 05:34:11;;;;;;;6.97;1.33;;;11.70;99.90;;;;;;6225603;22;20027;-79
2023/12/25 05:36:38;;;;;;;6.88;1.25;;;11.60;99.90;;;;;;6250884;22;20342;-81
2023/12/25 05:39:06;;;;;;;4.30;1.00;;;11.50;99.90;;;;;;6250675;22;20484;-82
2023/12/25 05:41:43;;;;;;;3.85;0.70;;;11.50;99.90;;;;;;6251770;22;20022;-81
2023/12/25 05:44:10;;;;;;;6.63;0.75;;;11.40;99.90;;;;;;6250586;22;20396;-80
2023/12/25 05:46:37;;;;;;;4.15;0.68;;;11.40;99.90;;;;;;6253528;22;20020;-78
2023/12/25 05:49:05;;;;;;;6.35;0.75;;;11.40;99.90;;;;;;6246625;22;20038;-79
2023/12/25 05:51:32;;;;;;;5.43;0.80;;;11.30;99.90;;;;;;6273625;22;20022;-78
2023/12/25 05:53:59;;;;;;;3.83;1.05;;;11.40;99.90;;;;;;6264046;22;20015;-78
2023/12/25 05:56:27;;;;;;;5.85;1.40;;;11.40;99.90;;;;;;6227158;22;20089;-77
2023/12/25 05:58:54;;;;;;;3.55;1.20;;;11.40;99.90;;;;;;6252289;22;20046;-78
2023/12/25 06:01:21;;;;;;;4.93;0.88;;;11.40;99.90;;;;;;6256367;22;20065;-77
2023/12/25 06:03:49;;;;;;;6.65;1.25;;;11.50;99.90;;;;;;6281168;22;20026;-78
2023/12/25 06:06:17;;;;;;;7.10;2.10;;;11.50;99.90;;;;;;6256041;22;20513;-78
2023/12/25 06:08:44;;;;;;;5.82;1.52;;;11.60;99.90;;;;;;6256260;22;20058;-78
2023/12/25 06:11:11;;;;;;;7.30;1.45;;;11.50;99.90;;;;;;6308389;22;20086;-78
2023/12/25 06:13:38;;;;;;;4.95;1.25;;;11.50;99.90;;;;;;6230690;22;20069;-78
2023/12/25 06:16:05;;;;;;;10.93;2.15;;;11.60;99.90;;;;;;6281203;22;20388;-78
2023/12/25 06:18:32;;;;;;;9.65;2.10;;;11.50;99.90;;;;;;6280817;22;20020;-78
2023/12/25 06:20:59;;;;;;;7.43;1.30;;;11.60;99.90;;;;;;6281035;22;20011;-78
2023/12/25 06:23:26;;;;;;;3.67;1.02;;;11.50;99.90;;;;;;6255330;22;20111;-78
2023/12/25 06:25:53;;;;;;;5.15;1.40;;;11.60;99.90;;;;;;6255255;22;20106;-78
2023/12/25 06:28:20;;;;;;;8.02;1.27;;;11.50;99.90;;;;;;6230100;22;20019;-77
2023/12/25 06:30:51;;;;;;;5.70;1.75;;;11.50;99.90;;;;;;6255301;22;20072;-78
2023/12/25 06:33:19;;;;;;;6.47;1.77;;;11.50;99.90;;;;;;6255925;22;20027;-78
2023/12/25 06:35:46;;;;;;;5.90;1.38;;;11.50;99.90;;;;;;6307890;22;20011;-78
2023/12/25 06:38:13;;;;;;;5.53;1.40;;;11.50;99.90;;;;;;6280771;22;20011;-78
2023/12/25 06:40:40;;;;;;;4.13;1.02;;;11.50;99.90;;;;;;6230015;22;20053;-78
2023/12/25 06:43:08;;;;;;;4.03;1.15;;;11.50;99.90;;;;;;6254860;22;20023;-78
2023/12/25 06:45:35;;;;;;;4.75;1.75;;;11.40;99.90;;;;;;6255411;22;20019;-77
2023/12/25 06:48:02;;;;;;;3.35;0.70;;;11.40;99.90;;;;;;6229832;22;20015;-77
2023/12/25 06:50:29;;;;;;;4.63;1.05;;;11.40;99.90;;;;;;6280063;22;20326;-78
2023/12/25 06:52:57;;;;;;;3.67;1.10;;;11.40;99.90;;;;;;6229998;22;20024;-79
2023/12/25 06:55:24;;;;;;;5.32;0.77;;;11.40;99.90;;;;;;6255572;22;20445;-78
2023/12/25 06:57:51;;;;;;;3.70;0.65;;;11.40;99.90;;;;;;6280462;22;20077;-77
2023/12/25 07:00:19;;;;;;;5.45;0.70;;;11.30;99.90;;;;;;6229768;22;20053;-77
2023/12/25 07:02:46;;;;;;;3.65;0.60;;;11.30;99.90;;;;;;6280326;22;20015;-77
2023/12/25 07:05:13;;;;;;;5.00;0.47;;;11.20;99.90;;;;;;6254611;22;20472;-78
2023/12/25 07:07:44;;;;;;;3.60;0.50;;;11.20;99.90;;;;;;6256239;22;20463;-78
2023/12/25 07:10:10;;;;;;;2.53;0.68;;;11.20;99.90;;;;;;6254793;22;20073;-77
2023/12/25 07:12:38;;;;;;;3.50;0.50;;;11.20;99.90;;;;;;6254730;22;20015;-77
2023/12/25 07:15:06;;;;;;;3.65;0.45;;;11.10;99.90;;;;;;6255036;22;20023;-77
2023/12/25 07:17:34;;;;;;;1.52;0.32;;;11.10;99.90;;;;;;6255276;22;20344;-77
2023/12/25 07:20:01;;;;;;;1.55;0.45;;;11.10;99.90;;;;;;6254932;22;20023;-77
2023/12/25 07:22:29;;;;;;;2.70;0.40;;;11.00;99.90;;;;;;6307131;22;20026;-77
2023/12/25 07:24:56;;;;;;;0.93;0.40;;;11.00;99.90;;;;;;6280772;22;20054;-77
2023/12/25 07:27:23;;;;;;;2.45;0.50;;;11.00;99.90;;;;;;6307340;22;20069;-77
2023/12/25 07:29:50;;;;;;;1.10;0.30;;;11.00;99.90;;;;;;6280087;22;20120;-77
2023/12/25 07:32:17;;;;;;;2.53;0.40;;;10.90;99.90;;;;;;6280172;22;20054;-77
2023/12/25 07:34:44;;;;;;;2.22;0.40;;;10.90;99.90;;;;;;6280090;22;20026;-78
2023/12/25 07:37:11;;;;;;;2.03;0.43;;;10.90;99.90;;;;;;6254798;22;20023;-78
2023/12/25 07:39:40;;;;;;;2.47;0.30;;;10.90;99.90;;;;;;6254670;22;20042;-77
2023/12/25 07:42:07;;;;;;;0.88;0.30;;;10.90;99.90;;;;;;6279976;22;20457;-77
2023/12/25 07:44:39;;;;;;;2.78;0.40;;;10.90;99.90;;;;;;6229991;22;20015;-77
2023/12/25 07:47:11;;;;;;;0.75;0.28;;;10.90;99.90;;;;;;6282071;22;20111;-91
2023/12/25 07:49:42;;;;;;;0.98;0.20;;;10.90;99.90;;;;;;6281974;22;20011;-80
2023/12/25 07:52:09;;;;;;;1.55;0.30;;;10.90;99.90;;;;;;6256662;22;20077;-80
2023/12/25 07:54:36;;;;;;;1.10;0.30;;;10.90;99.90;;;;;;6257065;22;20074;-81
2023/12/25 07:57:04;;;;;;;1.77;0.32;;;10.90;99.90;;;;;;6231753;22;20069;-79
2023/12/25 07:59:31;;;;;;;3.85;0.43;;;10.90;99.90;;;;;;6226472;22;20054;-79
2023/12/25 08:01:58;;;;;;;2.20;0.45;;;10.90;99.90;;;;;;6226145;22;20479;-80
2023/12/25 08:04:25;;;;;;;2.40;0.30;;;10.90;99.90;;;;;;6226159;22;20327;-79
2023/12/25 08:06:52;;;;;;;1.75;0.22;;;10.90;99.90;;;;;;6251444;22;20020;-79
2023/12/25 08:09:19;;;;;;;1.27;0.20;;;10.90;99.90;;;;;;6251126;22;20032;-79
2023/12/25 08:11:45;;;;;;;2.53;0.20;;;10.90;99.90;;;;;;6220821;23;20020;-79
2023/12/25 08:14:12;;;;;;;1.02;0.30;;;10.90;99.90;;;;;;6247436;22;20028;-79
2023/12/25 08:16:40;;;;;;;1.75;0.20;;;10.90;99.90;;;;;;6195902;23;20078;-80
2023/12/25 08:19:07;;;;;;;1.10;0.40;;;10.90;99.90;;;;;;6216850;22;20020;-81
2023/12/25 08:21:34;;;;;;;1.23;0.20;;;11.00;99.90;;;;;;6251029;22;20077;-80
2023/12/25 08:24:02;;;;;;;2.47;0.30;;;11.00;99.90;;;;;;6226066;22;20022;-80
2023/12/25 08:26:29;;;;;;;1.70;0.40;;;11.00;99.90;;;;;;6251317;22;20020;-80
2023/12/25 08:28:56;;;;;;;1.08;0.30;;;11.00;99.90;;;;;;6251421;22;20020;-80
2023/12/25 08:31:23;;;;;;;2.95;0.50;;;11.00;99.90;;;;;;6226427;22;20027;-80
2023/12/25 08:33:50;;;;;;;4.00;0.40;;;11.00;99.90;;;;;;6278380;22;20066;-82
2023/12/25 08:36:18;;;;;;;1.30;0.52;;;11.00;99.90;;;;;;6251284;22;20020;-82
2023/12/25 08:38:44;;;;;;;1.25;0.30;;;11.00;99.90;;;;;;6196530;23;20020;-82
2023/12/25 08:41:12;;;;;;;3.05;0.68;;;11.00;99.90;;;;;;6248289;22;20019;-81
2023/12/25 08:43:38;;;;;;;2.00;0.47;;;11.00;99.90;;;;;;6250832;22;20381;-81
2023/12/25 08:46:17;;;;;;;4.13;0.70;;;11.10;99.90;;;;;;6228120;22;20468;-81
2023/12/25 08:48:44;;;;;;;1.92;0.50;;;11.10;99.90;;;;;;6250636;22;20020;-80
2023/12/25 08:51:11;;;;;;;2.22;0.50;;;11.10;99.90;;;;;;6225760;22;20352;-80
2023/12/25 08:53:42;;;;;;;1.00;0.40;;;11.10;99.90;;;;;;6196148;23;20099;-80
2023/12/25 08:56:10;;;;;;;1.95;0.30;;;11.10;99.90;;;;;;6245857;22;20446;-80
2023/12/25 08:58:39;;;;;;;1.90;0.32;;;11.10;99.90;;;;;;6250742;22;20027;-80
2023/12/25 09:01:06;;;;;;;3.50;0.43;;;11.10;99.90;;;;;;6276336;22;20027;-80
2023/12/25 09:03:33;;;;;;;3.03;0.30;;;11.10;99.90;;;;;;6250885;22;20363;-80
2023/12/25 09:06:02;;;;;;;2.08;0.47;;;11.10;99.90;;;;;;6250649;22;20342;-80
2023/12/25 09:08:30;;;;;;;2.15;0.30;;;11.10;99.90;;;;;;6250814;22;20020;-80
2023/12/25 09:10:57;;;;;;;2.75;0.50;;;11.10;99.90;;;;;;6250725;22;20470;-80
2023/12/25 09:13:24;;;;;;;1.98;0.40;;;11.10;99.90;;;;;;6251123;22;20035;-80
2023/12/25 09:15:51;;;;;;;1.80;0.45;;;11.10;99.90;;;;;;6225498;22;20030;-80
2023/12/25 09:18:18;;;;;;;3.65;1.13;;;11.10;99.90;;;;;;6248412;22;20035;-80
2023/12/25 09:20:45;;;;;;;2.50;0.60;;;11.10;99.90;;;;;;6225814;22;20023;-80
2023/12/25 09:23:12;;;;;;;1.95;0.50;;;11.10;99.90;;;;;;6250964;22;20350;-80
2023/12/25 09:25:40;;;;;;;1.60;0.40;;;11.10;99.90;;;;;;6195638;23;20020;-80
2023/12/25 09:28:07;;;;;;;3.85;0.55;;;11.10;99.90;;;;;;6216168;22;20030;-80
2023/12/25 09:30:34;;;;;;;2.53;0.43;;;11.10;99.90;;;;;;6220190;23;20034;-80
2023/12/25 09:33:01;;;;;;;2.70;0.52;;;11.10;99.90;;;;;;6214782;23;20024;-80
2023/12/25 09:35:28;;;;;;;2.25;0.40;;;11.20;99.90;;;;;;6250608;22;20024;-80
2023/12/25 09:37:55;;;;;;;2.92;0.70;;;11.10;99.90;;;;;;6250815;22;20043;-80
2023/12/25 09:40:23;;;;;;;2.03;0.70;;;11.20;99.90;;;;;;6258527;22;20020;-80
2023/12/25 09:42:50;;;;;;;2.67;0.55;;;11.10;99.90;;;;;;6263951;22;20012;-81
2023/12/25 09:45:17;;;;;;;3.30;0.98;;;11.10;99.90;;;;;;6266614;22;20024;-82
2023/12/25 09:47:45;;;;;;;2.35;0.95;;;11.20;99.90;;;;;;6253436;22;20012;-80
2023/12/25 09:50:13;;;;;;;3.13;0.82;;;11.10;99.90;;;;;;6252347;22;20011;-80
2023/12/25 09:52:40;;;;;;;2.72;0.80;;;11.10;99.90;;;;;;6226612;22;20020;-80
2023/12/25 09:55:08;;;;;;;3.45;0.52;;;11.20;99.90;;;;;;6251207;22;20024;-80
2023/12/25 09:57:37;;;;;;;6.13;0.60;;;11.20;99.90;;;;;;6251187;22;20450;-80
2023/12/25 10:00:06;;;;;;;0.85;0.40;;;11.20;99.90;;;;;;6225234;22;20055;-80
2023/12/25 10:02:36;;;;;;;1.90;0.45;;;11.20;99.90;;;;;;6238831;22;20095;-81
2023/12/25 10:05:05;;;;;;;1.90;0.68;;;11.30;99.90;;;;;;6250519;22;20054;-81
2023/12/25 10:07:32;;;;;;;3.03;0.50;;;11.30;99.90;;;;;;6250940;22;20019;-81
2023/12/25 10:09:59;;;;;;;1.33;0.52;;;11.40;99.90;;;;;;6200431;22;20406;-80
2023/12/25 10:12:26;;;;;;;1.38;0.63;;;11.40;99.90;;;;;;6250354;22;20099;-80
2023/12/25 10:14:53;;;;;;;2.00;0.40;;;11.40;99.90;;;;;;6250585;22;20377;-80
2023/12/25 10:17:20;;;;;;;2.42;0.50;;;11.50;99.90;;;;;;6225471;22;20023;-80
2023/12/25 10:19:52;;;;;;;2.50;0.52;;;11.50;99.90;;;;;;6200538;22;20032;-80
2023/12/25 10:22:32;;;;;;;;;;;11.40;99.90;;;;;;6248858;22;20020;-80
2023/12/25 10:25:10;;;;;;;3.15;0.40;;;11.40;99.90;;;;;;6219763;23;19923;-80
2023/12/25 10:27:45;;;;;;;2.53;0.43;;;11.40;99.90;;;;;;6270335;22;20028;-80
2023/12/25 10:30:19;;;;;;;4.88;0.47;;;11.40;99.90;;;;;;6272016;22;20050;-81
2023/12/25 10:32:47;;;;;;;2.25;0.50;;;11.40;99.90;;;;;;6275592;22;20020;-81
2023/12/25 10:35:22;;;;;;;1.33;0.40;;;11.40;99.90;;;;;;6250446;22;20459;-81
2023/12/25 10:37:49;;;;;;;3.53;0.57;;;11.40;99.90;;;;;;6252333;22;20099;-85
2023/12/25 10:40:24;;;;;;;1.77;0.40;;;11.40;99.90;;;;;;6200181;22;20057;-81
2023/12/25 10:42:56;;;;;;;1.55;0.30;;;11.40;99.90;;;;;;6276260;22;20034;-79
2023/12/25 10:45:25;;;;;;;1.83;0.60;;;11.50;99.90;;;;;;6275127;22;20417;-80
2023/12/25 10:47:54;;;;;;;2.65;0.45;;;11.50;99.90;;;;;;6275521;22;20042;-81
2023/12/25 10:50:25;;;;;;;1.35;0.40;;;11.50;99.90;;;;;;6250474;22;20036;-81
2023/12/25 10:53:06;;;;;;;2.85;0.57;;;11.50;99.90;;;;;;6275201;22;20062;-81
2023/12/25 10:55:37;;;;;;;2.40;0.82;;;11.50;99.90;;;;;;6250612;22;20024;-85
2023/12/25 10:58:19;;;;;;;1.02;0.30;;;11.50;99.90;;;;;;6245833;23;20031;-88
2023/12/25 11:00:59;;;;;;;1.35;0.40;;;11.50;99.90;;;;;;6245513;22;20028;-88
2023/12/25 11:07:32;;;;;;;4.30;0.70;;;11.50;99.90;;;;;;6272708;22;20118;-96
2023/12/25 11:10:11;;;;;;;2.42;0.40;;;11.50;99.90;;;;;;6253601;22;20054;-90
2023/12/25 11:20:21;;;;;;;4.18;1.33;;;11.40;99.90;;;;;;6276775;22;20072;-92
2023/12/25 11:22:48;;;;;;;1.92;0.35;;;11.40;99.90;;;;;;6256976;22;20049;-94
2023/12/25 11:25:20;;;;;;;1.17;0.47;;;11.50;99.90;;;;;;6231484;22;20437;-88
2023/12/25 11:27:52;;;;;;;3.38;1.05;;;11.60;99.90;;;;;;6230915;22;20022;-94
2023/12/25 11:34:51;;;;;;;3.85;0.65;;;11.70;99.90;;;;;;6309885;22;20029;-93
2023/12/25 11:37:25;;;;;;;1.35;0.43;;;11.70;99.90;;;;;;6256558;22;20039;-89
2023/12/25 11:39:59;;;;;;;3.20;0.60;;;11.70;99.90;;;;;;6282206;22;20019;-94
2023/12/25 11:42:26;;;;;;;1.90;0.40;;;11.70;99.90;;;;;;6257416;22;20019;-94
2023/12/25 11:45:09;;;;;;;2.83;0.30;;;11.70;99.90;;;;;;6294302;22;20022;-94
2023/12/25 11:47:47;;;;;;;1.67;0.30;;;11.70;99.90;;;;;;6283228;22;20038;-93
2023/12/25 11:50:17;;;;;;;2.10;0.52;;;11.60;99.90;;;;;;6283005;22;20035;-95
2023/12/25 11:52:55;;;;;;;2.25;0.40;;;11.60;99.90;;;;;;6257757;22;20042;-95
2023/12/25 11:55:33;;;;;;;2.28;0.40;;;11.60;99.90;;;;;;6282437;22;20077;-94
2023/12/25 11:58:01;;;;;;;2.95;0.30;;;11.60;99.90;;;;;;6231766;22;20031;-85
2023/12/25 12:00:32;;;;;;;3.38;0.70;;;11.60;99.90;;;;;;6250338;22;20036;-82
2023/12/25 12:03:00;;;;;;;2.15;0.30;;;11.60;99.90;;;;;;6250372;22;20017;-88
2023/12/25 12:05:28;;;;;;;1.65;0.40;;;11.60;99.90;;;;;;6252003;22;20522;-90
2023/12/25 12:07:55;;;;;;;1.42;0.40;;;11.50;99.90;;;;;;6227338;22;20019;-91
2023/12/25 12:10:32;;;;;;;4.38;0.40;;;11.50;99.90;;;;;;6229193;22;20102;-92
2023/12/25 12:13:34;;;;;;;3.13;0.40;;;11.50;99.90;;;;;;6276762;22;20024;-89
2023/12/25 12:16:05;;;;;;;2.30;0.30;;;11.40;99.90;;;;;;6252070;22;20106;-90
2023/12/25 12:18:32;;;;;;;3.55;0.60;;;11.40;99.90;;;;;;6251494;22;20020;-86
2023/12/25 12:21:00;;;;;;;3.58;0.50;;;11.40;99.90;;;;;;6249998;22;20027;-83
2023/12/25 12:23:28;;;;;;;2.55;0.47;;;11.50;99.90;;;;;;6249189;22;20043;-82
2023/12/25 12:25:55;;;;;;;2.50;0.50;;;11.50;99.90;;;;;;6224996;22;20023;-83
2023/12/25 12:28:22;;;;;;;2.35;0.55;;;11.50;99.90;;;;;;6249697;22;20019;-83
2023/12/25 12:30:49;;;;;;;1.67;0.40;;;11.40;99.90;;;;;;6225230;22;20093;-84
2023/12/25 12:33:18;;;;;;;2.53;0.38;;;11.40;99.90;;;;;;6202155;22;20028;-84
2023/12/25 12:35:49;;;;;;;3.08;0.65;;;11.50;99.90;;;;;;6251779;22;20027;-83
2023/12/25 12:38:16;;;;;;;2.63;0.60;;;11.50;99.90;;;;;;6251844;22;20038;-82
2023/12/25 12:40:43;;;;;;;2.53;0.50;;;11.50;99.90;;;;;;6251500;22;20246;-83
2023/12/25 12:43:14;;;;;;;2.22;0.55;;;11.60;99.90;;;;;;6276705;22;20047;-83
2023/12/25 12:45:41;;;;;;;1.45;0.32;;;11.60;99.90;;;;;;6251373;22;20019;-82
2023/12/25 12:48:09;;;;;;;4.47;0.40;;;11.60;99.90;;;;;;6226587;22;20027;-83
2023/12/25 12:50:36;;;;;;;4.32;0.50;;;11.60;99.90;;;;;;6251315;22;20026;-83
2023/12/25 12:53:04;;;;;;;1.60;0.50;;;11.50;99.90;;;;;;6226798;22;20027;-83
2023/12/25 12:55:36;;;;;;;2.53;0.60;;;11.40;99.90;;;;;;6251472;22;20024;-83
2023/12/25 12:58:04;;;;;;;;;;;11.40;99.90;;;;;;6252136;22;20030;-83
2023/12/25 13:00:31;;;;;;;2.50;0.63;;;11.40;99.90;;;;;;6239496;22;20325;-83
2023/12/25 13:02:59;;;;;;;1.52;0.50;;;11.40;99.90;;;;;;6250958;22;20023;-82
2023/12/25 13:05:26;;;;;;;1.73;0.45;;;11.50;99.90;;;;;;6205748;22;20043;-82
2023/12/25 13:07:57;;;;;;;2.78;0.65;;;11.50;99.90;;;;;;6256901;22;20029;-81